createdAt,value
2022-09-28T00:00:02.008Z,98152.91
2022-09-28T00:01:45.973Z,98157.16
2022-09-28T00:03:19.323Z,98143.34
2022-09-28T00:04:52.580Z,98159.72
2022-09-28T00:06:27.967Z,98150.34
2022-09-28T00:08:01.485Z,98156.97
2022-09-28T00:09:34.717Z,98151.13
2022-09-28T00:11:13.880Z,98158.78
2022-09-28T00:12:47.542Z,98153.38
2022-09-28T00:14:21.491Z,98156.03
2022-09-28T00:16:04.969Z,98154.19
2022-09-28T00:17:38.352Z,98162.94
2022-09-28T00:19:12.943Z,98157.53
2022-09-28T00:20:45.252Z,98155.06
2022-09-28T00:22:18.403Z,98152.59
2022-09-28T00:24:11.388Z,98151.13
2022-09-28T00:25:45.015Z,98147.16
2022-09-28T00:27:22.182Z,98152.66
2022-09-28T00:28:55.216Z,98161.16
2022-09-28T00:30:28.518Z,98151.13
2022-09-28T00:32:05.562Z,98145.38
2022-09-28T00:33:40.692Z,98154.13
2022-09-28T00:35:14.537Z,98148.25
2022-09-28T00:36:48.166Z,98149.69
2022-09-28T00:38:21.664Z,98156.03
2022-09-28T00:39:54.915Z,98152.63
2022-09-28T00:41:28.488Z,98145.63
2022-09-28T00:43:21.563Z,98149.00
2022-09-28T00:44:56.064Z,98155.66
2022-09-28T00:46:33.809Z,98159.00
2022-09-28T00:48:07.062Z,98158.31
2022-09-28T00:49:44.090Z,98153.19
2022-09-28T00:51:17.938Z,98153.41
2022-09-28T00:52:55.783Z,98162.50
2022-09-28T00:54:28.279Z,98151.44
2022-09-28T00:56:07.517Z,98150.78
2022-09-28T00:57:45.024Z,98161.38
2022-09-28T00:59:18.802Z,98149.28
2022-09-28T01:00:52.118Z,98153.91
2022-09-28T01:02:24.661Z,98141.50
2022-09-28T01:04:01.573Z,98139.59
2022-09-28T01:05:36.398Z,98147.44
2022-09-28T01:07:11.483Z,98154.34
2022-09-28T01:08:46.786Z,98147.34
2022-09-28T01:10:20.982Z,98151.72
2022-09-28T01:11:55.298Z,98150.88
2022-09-28T01:13:29.595Z,98154.94
2022-09-28T01:15:05.612Z,98148.91
2022-09-28T01:16:46.085Z,98151.72
2022-09-28T01:18:52.324Z,98147.66
2022-09-28T01:20:34.743Z,98147.66
2022-09-28T01:22:24.968Z,98149.25
2022-09-28T01:24:14.652Z,98148.53
2022-09-28T01:25:53.999Z,98143.94
2022-09-28T01:27:32.753Z,98142.53
2022-09-28T01:29:13.311Z,98146.03
2022-09-28T01:30:52.348Z,98149.16
2022-09-28T01:32:36.922Z,98141.72
2022-09-28T01:34:14.253Z,98139.81
2022-09-28T01:35:55.117Z,98162.50
2022-09-28T01:37:37.400Z,98140.28
2022-09-28T01:39:13.695Z,98151.56
2022-09-28T01:40:48.547Z,98155.81
2022-09-28T01:42:25.319Z,98152.28
2022-09-28T01:44:03.479Z,98153.44
2022-09-28T01:45:42.683Z,98156.66
2022-09-28T01:47:22.466Z,98159.22
2022-09-28T01:48:58.671Z,98150.22
2022-09-28T01:50:38.121Z,98154.56
2022-09-28T01:52:16.220Z,98168.78
2022-09-28T01:53:54.711Z,98148.91
2022-09-28T01:55:35.294Z,98161.19
2022-09-28T01:57:16.704Z,98162.16
2022-09-28T01:58:54.472Z,98167.44
2022-09-28T02:00:29.693Z,98158.72
2022-09-28T02:02:08.404Z,98153.44
2022-09-28T02:03:48.220Z,98154.94
2022-09-28T02:05:25.854Z,98174.81
2022-09-28T02:07:07.601Z,98172.56
2022-09-28T02:08:47.096Z,98174.63
2022-09-28T02:10:26.327Z,98165.53
2022-09-28T02:12:04.489Z,98174.44
2022-09-28T02:13:41.892Z,98173.50
2022-09-28T02:15:20.221Z,98169.84
2022-09-28T02:16:57.553Z,98177.28
2022-09-28T02:18:34.521Z,98171.81
2022-09-28T02:20:09.163Z,98171.63
2022-09-28T02:21:45.442Z,98169.72
2022-09-28T02:23:23.217Z,98166.31
2022-09-28T02:25:00.433Z,98176.94
2022-09-28T02:26:40.544Z,98171.81
2022-09-28T02:28:14.706Z,98177.13
2022-09-28T02:29:47.998Z,98174.56
2022-09-28T02:31:21.564Z,98179.75
2022-09-28T02:33:01.814Z,98173.69
2022-09-28T02:34:36.909Z,98177.69
2022-09-28T02:36:11.109Z,98177.69
2022-09-28T02:37:45.565Z,98186.56
2022-09-28T02:39:19.202Z,98172.94
2022-09-28T02:41:03.916Z,98183.72
2022-09-28T02:42:47.641Z,98189.59
2022-09-28T02:44:41.239Z,98188.78
2022-09-28T02:46:28.719Z,98190.31
2022-09-28T02:48:35.889Z,98185.13
2022-09-28T02:50:23.009Z,98178.19
2022-09-28T02:52:26.230Z,98180.19
2022-09-28T02:54:21.633Z,98179.34
2022-09-28T02:56:11.480Z,98180.19
2022-09-28T02:57:57.972Z,98188.63
2022-09-28T02:59:45.594Z,98184.66
2022-09-28T03:01:28.576Z,98176.72
2022-09-28T03:03:14.513Z,98176.53
2022-09-28T03:04:57.822Z,98179.00
2022-09-28T03:06:42.252Z,98184.09
2022-09-28T03:08:23.823Z,98170.38
2022-09-28T03:10:04.294Z,98178.22
2022-09-28T03:11:43.079Z,98180.13
2022-09-28T03:13:16.944Z,98180.31
2022-09-28T03:15:06.627Z,98183.25
2022-09-28T03:16:45.118Z,98171.03
2022-09-28T03:18:20.174Z,98187.88
2022-09-28T03:19:52.743Z,98188.06
2022-09-28T03:21:26.141Z,98186.91
2022-09-28T03:23:23.208Z,98192.75
2022-09-28T03:24:51.999Z,98207.81
2022-09-28T03:26:24.279Z,98203.06
2022-09-28T03:27:57.550Z,98192.78
2022-09-28T03:29:33.164Z,98196.41
2022-09-28T03:31:10.689Z,98207.16
2022-09-28T03:32:44.138Z,98201.69
2022-09-28T03:34:19.222Z,98203.81
2022-09-28T03:35:53.417Z,98205.94
2022-09-28T03:37:27.782Z,98205.41
2022-09-28T03:39:01.132Z,98207.59
2022-09-28T03:40:34.641Z,98202.97
2022-09-28T03:42:08.082Z,98208.97
2022-09-28T03:43:47.986Z,98204.31
2022-09-28T03:45:21.470Z,98212.81
2022-09-28T03:46:57.234Z,98200.91
2022-09-28T03:48:33.355Z,98205.47
2022-09-28T03:50:08.837Z,98215.91
2022-09-28T03:51:42.099Z,98215.69
2022-09-28T03:53:14.599Z,98209.28
2022-09-28T03:54:49.331Z,98205.69
2022-09-28T03:56:23.088Z,98206.66
2022-09-28T03:57:55.876Z,98202.00
2022-09-28T03:59:29.243Z,98214.38
2022-09-28T04:01:04.687Z,98220.63
2022-09-28T04:02:38.057Z,98214.69
2022-09-28T04:04:13.190Z,98217.25
2022-09-28T04:05:55.000Z,98217.13
2022-09-28T04:07:31.268Z,98213.72
2022-09-28T04:09:05.543Z,98217.41
2022-09-28T04:10:38.807Z,98206.22
2022-09-28T04:12:13.398Z,98222.53
2022-09-28T04:13:49.642Z,98229.25
2022-09-28T04:15:23.414Z,98232.81
2022-09-28T04:16:55.756Z,98232.72
2022-09-28T04:18:31.642Z,98236.22
2022-09-28T04:20:33.282Z,98240.50
2022-09-28T04:22:11.410Z,98249.41
2022-09-28T04:23:45.418Z,98245.97
2022-09-28T04:25:18.943Z,98240.09
2022-09-28T04:26:52.444Z,98248.59
2022-09-28T04:28:44.290Z,98243.56
2022-09-28T04:30:17.116Z,98246.69
2022-09-28T04:31:53.233Z,98248.22
2022-09-28T04:33:29.989Z,98247.19
2022-09-28T04:35:03.163Z,98243.88
2022-09-28T04:36:36.614Z,98248.41
2022-09-28T04:38:11.304Z,98252.69
2022-09-28T04:39:48.227Z,98253.53
2022-09-28T04:41:23.976Z,98263.94
2022-09-28T04:42:57.638Z,98263.47
2022-09-28T04:44:31.797Z,98259.38
2022-09-28T04:46:11.902Z,98268.34
2022-09-28T04:47:52.559Z,98269.09
2022-09-28T04:49:49.283Z,98273.44
2022-09-28T04:51:42.752Z,98269.97
2022-09-28T04:53:17.419Z,98263.91
2022-09-28T04:54:51.164Z,98273.03
2022-09-28T04:56:25.561Z,98274.72
2022-09-28T04:58:02.793Z,98272.84
2022-09-28T04:59:36.279Z,98261.94
2022-09-28T05:01:13.194Z,98275.59
2022-09-28T05:03:01.755Z,98274.38
2022-09-28T05:05:01.310Z,98279.66
2022-09-28T05:07:03.569Z,98271.91
2022-09-28T05:08:38.592Z,98277.09
2022-09-28T05:10:11.842Z,98277.59
2022-09-28T05:11:45.760Z,98270.03
2022-09-28T05:13:23.692Z,98270.16
2022-09-28T05:14:57.741Z,98266.19
2022-09-28T05:16:33.810Z,98270.66
2022-09-28T05:18:25.780Z,98275.09
2022-09-28T05:20:09.309Z,98277.50
2022-09-28T05:21:46.920Z,98275.22
2022-09-28T05:23:20.702Z,98274.84
2022-09-28T05:24:56.068Z,98275.59
2022-09-28T05:26:31.391Z,98276.16
2022-09-28T05:28:05.828Z,98275.25
2022-09-28T05:29:57.969Z,98278.47
2022-09-28T05:31:37.154Z,98281.09
2022-09-28T05:33:18.254Z,98284.72
2022-09-28T05:35:02.102Z,98284.91
2022-09-28T05:36:45.886Z,98288.50
2022-09-28T05:38:19.269Z,98281.09
2022-09-28T05:39:52.563Z,98280.53
2022-09-28T05:41:27.377Z,98283.38
2022-09-28T05:43:02.049Z,98279.56
2022-09-28T05:44:35.622Z,98292.41
2022-09-28T05:46:11.940Z,98290.22
2022-09-28T05:47:48.066Z,98295.91
2022-09-28T05:49:25.058Z,98295.44
2022-09-28T05:50:58.736Z,98297.41
2022-09-28T05:52:32.366Z,98293.22
2022-09-28T05:54:06.464Z,98290.56
2022-09-28T05:55:42.626Z,98283.75
2022-09-28T05:57:17.427Z,98281.28
2022-09-28T05:58:50.579Z,98287.75
2022-09-28T06:00:26.351Z,98285.16
2022-09-28T06:02:03.103Z,98285.75
2022-09-28T06:03:36.589Z,98293.50
2022-09-28T06:05:11.112Z,98290.16
2022-09-28T06:06:44.584Z,98280.81
2022-09-28T06:08:17.959Z,98289.22
2022-09-28T06:09:54.817Z,98292.84
2022-09-28T06:11:44.940Z,98290.09
2022-09-28T06:13:32.434Z,98287.72
2022-09-28T06:15:06.500Z,98291.34
2022-09-28T06:16:43.704Z,98281.91
2022-09-28T06:18:17.736Z,98287.53
2022-09-28T06:20:31.935Z,98289.41
2022-09-28T06:22:17.743Z,98280.59
2022-09-28T06:23:58.162Z,98290.72
2022-09-28T06:25:31.871Z,98283.53
2022-09-28T06:27:05.411Z,98297.88
2022-09-28T06:28:40.155Z,98299.09
2022-09-28T06:30:13.942Z,98295.69
2022-09-28T06:31:47.494Z,98297.38
2022-09-28T06:33:22.061Z,98289.50
2022-09-28T06:34:56.505Z,98299.47
2022-09-28T06:36:32.214Z,98300.13
2022-09-28T06:38:05.959Z,98298.06
2022-09-28T06:39:39.725Z,98295.19
2022-09-28T06:41:13.363Z,98296.84
2022-09-28T06:42:57.341Z,98292.03
2022-09-28T06:44:52.415Z,98292.69
2022-09-28T06:46:38.197Z,98290.38
2022-09-28T06:48:40.949Z,98290.44
2022-09-28T06:50:18.095Z,98290.75
2022-09-28T06:52:12.776Z,98293.38
2022-09-28T06:54:09.883Z,98280.47
2022-09-28T06:55:49.323Z,98277.91
2022-09-28T06:57:23.765Z,98270.28
2022-09-28T06:58:57.219Z,98273.81
2022-09-28T07:00:34.191Z,98261.22
2022-09-28T07:02:08.134Z,98272.94
2022-09-28T07:04:04.624Z,98266.84
2022-09-28T07:06:01.454Z,98272.22
2022-09-28T07:07:48.847Z,98277.03
2022-09-28T07:09:50.326Z,98278.91
2022-09-28T07:11:29.147Z,98274.22
2022-09-28T07:13:49.172Z,98284.66
2022-09-28T07:15:20.761Z,98286.84
2022-09-28T07:17:12.696Z,98281.19
2022-09-28T07:18:47.813Z,98276.41
2022-09-28T07:20:21.091Z,98272.75
2022-09-28T07:22:04.452Z,98281.38
2022-09-28T07:23:49.223Z,98272.13
2022-09-28T07:25:32.536Z,98270.69
2022-09-28T07:27:14.317Z,98261.31
2022-09-28T07:29:18.242Z,98266.53
2022-09-28T07:31:10.626Z,98238.88
2022-09-28T07:33:10.752Z,98240.72
2022-09-28T07:34:59.137Z,98236.28
2022-09-28T07:36:43.788Z,98225.72
2022-09-28T07:38:17.240Z,98224.84
2022-09-28T07:40:07.724Z,98229.63
2022-09-28T07:41:44.391Z,98230.31
2022-09-28T07:43:20.718Z,98209.19
2022-09-28T07:44:56.908Z,98229.09
2022-09-28T07:46:31.147Z,98216.81
2022-09-28T07:50:08.692Z,98208.56
2022-09-28T07:51:54.320Z,98205.81
2022-09-28T07:53:43.504Z,98199.00
2022-09-28T07:55:26.061Z,98193.09
2022-09-28T07:57:15.386Z,98191.44
2022-09-28T07:59:07.240Z,98191.41
2022-09-28T08:00:48.249Z,98190.75
2022-09-28T08:02:22.908Z,98192.38
2022-09-28T08:03:57.571Z,98188.81
2022-09-28T08:05:32.436Z,98183.72
2022-09-28T08:07:10.545Z,98183.28
2022-09-28T08:08:45.024Z,98182.25
2022-09-28T08:10:22.352Z,98188.84
2022-09-28T08:12:15.659Z,98182.03
2022-09-28T08:13:49.245Z,98186.72
2022-09-28T08:15:42.708Z,98186.47
2022-09-28T08:17:36.594Z,98193.13
2022-09-28T08:19:14.815Z,98191.25
2022-09-28T08:21:05.826Z,98191.53
2022-09-28T08:22:38.928Z,98185.75
2022-09-28T08:24:12.479Z,98186.59
2022-09-28T08:25:49.076Z,98186.06
2022-09-28T08:27:22.590Z,98189.34
2022-09-28T08:28:56.052Z,98184.31
2022-09-28T08:31:01.311Z,98174.03
2022-09-28T08:32:37.658Z,98174.44
2022-09-28T08:34:47.836Z,98168.22
2022-09-28T08:36:35.955Z,98165.59
2022-09-28T08:38:12.117Z,98159.66
2022-09-28T08:40:04.322Z,98160.06
2022-09-28T08:42:08.906Z,98159.06
2022-09-28T08:44:14.998Z,98153.03
2022-09-28T08:46:20.136Z,98149.47
2022-09-28T08:48:51.823Z,98146.25
2022-09-28T08:51:00.242Z,98143.56
2022-09-28T08:52:52.680Z,98148.81
2022-09-28T08:54:53.156Z,98137.56
2022-09-28T08:56:42.003Z,98133.66
2022-09-28T08:58:21.717Z,98133.31
2022-09-28T08:59:57.334Z,98123.38
2022-09-28T09:01:41.763Z,98127.88
2022-09-28T09:03:22.738Z,98132.31
2022-09-28T09:05:14.989Z,98127.25
2022-09-28T09:07:22.625Z,98127.97
2022-09-28T09:09:23.945Z,98130.09
2022-09-28T09:11:03.579Z,98121.06
2022-09-28T09:12:48.237Z,98120.19
2022-09-28T09:14:44.626Z,98124.97
2022-09-28T09:16:32.573Z,98117.00
2022-09-28T09:18:37.644Z,98120.47
2022-09-28T09:20:39.884Z,98121.53
2022-09-28T09:22:36.895Z,98119.63
2022-09-28T09:24:27.372Z,98117.69
2022-09-28T09:26:10.191Z,98113.78
2022-09-28T09:27:59.241Z,98116.50
2022-09-28T09:29:55.792Z,98119.94
2022-09-28T09:31:43.218Z,98120.94
2022-09-28T09:33:47.944Z,98114.31
2022-09-28T09:36:01.177Z,98119.38
2022-09-28T09:38:17.111Z,98121.41
2022-09-28T09:40:17.189Z,98118.97
2022-09-28T09:42:41.264Z,98116.44
2022-09-28T09:45:03.952Z,98117.81
2022-09-28T09:47:09.421Z,98112.00
2022-09-28T09:48:56.441Z,98118.19
2022-09-28T09:50:35.380Z,98115.47
2022-09-28T09:52:16.503Z,98117.00
2022-09-28T09:53:59.792Z,98113.25
2022-09-28T09:55:37.918Z,98117.81
2022-09-28T09:57:51.909Z,98110.38
2022-09-28T09:59:41.117Z,98104.59
2022-09-28T10:01:31.543Z,98112.91
2022-09-28T10:03:36.233Z,98105.81
2022-09-28T10:05:23.416Z,98103.28
2022-09-28T10:07:02.809Z,98100.75
2022-09-28T10:08:43.032Z,98104.78
2022-09-28T10:10:23.002Z,98104.72
2022-09-28T10:11:59.504Z,98105.59
2022-09-28T10:13:33.495Z,98100.53
2022-09-28T10:15:16.318Z,98112.34
2022-09-28T10:17:08.084Z,98100.28
2022-09-28T10:19:00.562Z,98098.88
2022-09-28T10:20:52.230Z,98101.59
2022-09-28T10:23:04.241Z,98101.41
2022-09-28T10:24:41.879Z,98093.84
2022-09-28T10:26:25.125Z,98100.16
2022-09-28T10:28:01.143Z,98091.66
2022-09-28T10:29:44.441Z,98101.03
2022-09-28T10:31:40.357Z,98088.78
2022-09-28T10:33:32.866Z,98089.38
2022-09-28T10:35:23.761Z,98090.69
2022-09-28T10:37:07.502Z,98093.75
2022-09-28T10:38:57.963Z,98095.59
2022-09-28T10:40:43.781Z,98084.09
2022-09-28T10:42:24.465Z,98079.47
2022-09-28T10:44:07.263Z,98083.75
2022-09-28T10:45:47.579Z,98083.88
2022-09-28T10:47:23.440Z,98085.47
2022-09-28T10:49:00.748Z,98081.41
2022-09-28T10:50:36.908Z,98086.59
2022-09-28T10:52:31.964Z,98086.78
2022-09-28T10:54:05.600Z,98094.44
2022-09-28T10:55:59.746Z,98084.38
2022-09-28T10:57:37.897Z,98088.47
2022-09-28T10:59:39.239Z,98092.97
2022-09-28T11:01:35.634Z,98095.38
2022-09-28T11:03:20.711Z,98081.72
2022-09-28T11:04:56.741Z,98084.38
2022-09-28T11:06:33.035Z,98092.50
2022-09-28T11:08:08.862Z,98085.38
2022-09-28T11:09:54.839Z,98086.78
2022-09-28T11:11:29.628Z,98086.41
2022-09-28T11:13:11.960Z,98077.78
2022-09-28T11:14:52.955Z,98080.41
2022-09-28T11:16:29.433Z,98090.78
2022-09-28T11:18:25.475Z,98088.09
2022-09-28T11:20:01.384Z,98077.53
2022-09-28T11:21:44.076Z,98082.84
2022-09-28T11:23:21.695Z,98085.47
2022-09-28T11:25:30.348Z,98073.88
2022-09-28T11:27:04.081Z,98071.03
2022-09-28T11:28:43.088Z,98069.53
2022-09-28T11:30:26.873Z,98067.09
2022-09-28T11:32:44.936Z,98062.59
2022-09-28T11:34:58.128Z,98065.97
2022-09-28T11:36:47.466Z,98062.59
2022-09-28T11:38:33.689Z,98057.28
2022-09-28T11:40:35.948Z,98063.00
2022-09-28T11:42:23.542Z,98054.63
2022-09-28T11:44:29.464Z,98057.81
2022-09-28T11:46:24.200Z,98048.19
2022-09-28T11:48:03.114Z,98047.56
2022-09-28T11:49:44.545Z,98045.91
2022-09-28T11:51:22.461Z,98044.59
2022-09-28T11:53:03.642Z,98045.00
2022-09-28T11:54:44.077Z,98047.88
2022-09-28T11:56:33.263Z,98047.50
2022-09-28T11:58:14.437Z,98043.38
2022-09-28T11:59:57.791Z,98035.03
2022-09-28T12:01:38.279Z,98030.91
2022-09-28T12:03:37.341Z,98038.47
2022-09-28T12:05:20.973Z,98028.91
2022-09-28T12:07:01.312Z,98029.38
2022-09-28T12:08:41.434Z,98030.16
2022-09-28T12:10:44.683Z,98026.25
2022-09-28T12:12:25.692Z,98025.63
2022-09-28T12:14:06.816Z,98025.28
2022-09-28T12:16:17.178Z,98023.06
2022-09-28T12:17:46.976Z,98019.53
2022-09-28T12:19:24.994Z,98019.97
2022-09-28T12:21:10.562Z,98020.91
2022-09-28T12:22:49.809Z,98017.03
2022-09-28T12:24:28.311Z,98009.84
2022-09-28T12:26:05.161Z,98016.75
2022-09-28T12:27:43.358Z,98003.66
2022-09-28T12:29:21.391Z,98014.13
2022-09-28T12:30:58.604Z,98013.59
2022-09-28T12:32:39.237Z,98011.63
2022-09-28T12:34:12.466Z,98022.09
2022-09-28T12:36:06.028Z,98017.03
2022-09-28T12:37:55.831Z,98008.97
2022-09-28T12:39:57.146Z,98003.78
2022-09-28T12:41:43.715Z,98008.78
2022-09-28T12:43:34.220Z,98003.25
2022-09-28T12:45:38.479Z,98005.22
2022-09-28T12:47:33.866Z,98009.59
2022-09-28T12:51:35.947Z,98012.25
2022-09-28T12:53:28.310Z,98014.66
2022-09-28T12:55:18.437Z,98003.78
2022-09-28T12:57:02.743Z,98006.81
2022-09-28T12:59:00.338Z,97997.53
2022-09-28T13:00:42.397Z,98007.81
2022-09-28T13:02:52.182Z,98010.53
2022-09-28T13:04:47.565Z,98013.94
2022-09-28T13:06:31.162Z,98011.22
2022-09-28T13:08:11.109Z,98003.41
2022-09-28T13:09:58.026Z,98017.38
2022-09-28T13:11:38.117Z,98019.91
2022-09-28T13:13:34.805Z,98014.47
2022-09-28T13:15:27.901Z,98021.22
2022-09-28T13:17:11.046Z,98006.19
2022-09-28T13:18:52.656Z,98012.56
2022-09-28T13:20:35.961Z,98010.91
2022-09-28T13:22:23.544Z,98005.28
2022-09-28T13:24:20.705Z,98018.44
2022-09-28T13:25:58.556Z,98008.38
2022-09-28T13:27:37.260Z,98008.38
2022-09-28T13:29:14.692Z,98009.81
2022-09-28T13:30:48.658Z,98013.19
2022-09-28T13:32:24.502Z,98012.31
2022-09-28T13:34:01.517Z,98015.59
2022-09-28T13:35:35.179Z,98010.94
2022-09-28T13:37:23.483Z,98009.81
2022-09-28T13:38:59.631Z,98018.19
2022-09-28T13:41:12.265Z,98019.53
2022-09-28T13:43:06.805Z,98012.00
2022-09-28T13:45:09.857Z,98005.34
2022-09-28T13:46:51.023Z,98002.44
2022-09-28T13:48:35.769Z,98011.50
2022-09-28T13:50:23.481Z,98010.47
2022-09-28T13:52:06.375Z,98005.03
2022-09-28T13:54:01.219Z,98009.25
2022-09-28T13:55:42.452Z,98005.81
2022-09-28T13:57:25.317Z,97995.34
2022-09-28T13:59:03.178Z,98008.25
2022-09-28T14:00:45.747Z,98003.63
2022-09-28T14:02:37.025Z,98001.03
2022-09-28T14:04:17.856Z,98007.56
2022-09-28T14:06:11.615Z,98000.44
2022-09-28T14:07:59.909Z,98008.41
2022-09-28T14:09:47.990Z,98004.19
2022-09-28T14:12:01.047Z,98000.44
2022-09-28T14:14:02.082Z,98011.75
2022-09-28T14:15:45.119Z,98009.53
2022-09-28T14:17:55.298Z,98016.09
2022-09-28T14:19:32.832Z,98008.75
2022-09-28T14:21:32.096Z,98019.00
2022-09-28T14:23:32.478Z,98020.47
2022-09-28T14:25:15.257Z,98021.97
2022-09-28T14:27:12.679Z,98022.81
2022-09-28T14:28:54.080Z,98021.97
2022-09-28T14:30:34.147Z,98014.84
2022-09-28T14:32:23.996Z,98026.47
2022-09-28T14:33:59.419Z,98027.22
2022-09-28T14:35:35.112Z,98024.88
2022-09-28T14:37:40.529Z,98022.53
2022-09-28T14:39:48.312Z,98017.16
2022-09-28T14:41:31.578Z,98029.50
2022-09-28T14:43:28.861Z,98038.00
2022-09-28T14:45:35.032Z,98030.72
2022-09-28T14:47:27.518Z,98031.91
2022-09-28T14:49:03.719Z,98037.34
2022-09-28T14:50:37.006Z,98028.94
2022-09-28T14:52:14.039Z,98033.34
2022-09-28T14:53:51.981Z,98027.91
2022-09-28T14:55:32.275Z,98026.41
2022-09-28T14:57:16.771Z,98026.91
2022-09-28T14:58:55.416Z,98021.91
2022-09-28T15:00:31.970Z,98020.44
2022-09-28T15:02:09.874Z,98016.69
2022-09-28T15:03:45.421Z,98022.97
2022-09-28T15:05:24.159Z,98024.44
2022-09-28T15:06:58.177Z,98021.72
2022-09-28T15:08:39.776Z,98020.69
2022-09-28T15:10:27.799Z,98029.88
2022-09-28T15:12:02.054Z,98009.13
2022-09-28T15:13:35.692Z,98036.72
2022-09-28T15:15:21.379Z,98026.53
2022-09-28T15:16:55.520Z,98024.63
2022-09-28T15:19:18.805Z,98031.16
2022-09-28T15:20:52.844Z,98026.88
2022-09-28T15:22:25.379Z,98024.25
2022-09-28T15:23:58.597Z,98032.72
2022-09-28T15:25:35.439Z,98029.06
2022-09-28T15:27:19.070Z,98026.44
2022-09-28T15:28:52.780Z,98034.25
2022-09-28T15:30:29.213Z,98024.63
2022-09-28T15:32:03.054Z,98035.03
2022-09-28T15:33:53.785Z,98040.09
2022-09-28T15:35:28.926Z,98048.59
2022-09-28T15:37:09.101Z,98043.91
2022-09-28T15:38:43.262Z,98047.91
2022-09-28T15:40:19.418Z,98046.75
2022-09-28T15:41:54.408Z,98046.81
2022-09-28T15:43:32.884Z,98045.84
2022-09-28T15:45:27.096Z,98053.00
2022-09-28T15:47:10.224Z,98046.28
2022-09-28T15:48:51.764Z,98051.06
2022-09-28T15:50:29.008Z,98056.19
2022-09-28T15:52:03.107Z,98049.81
2022-09-28T15:53:37.086Z,98041.09
2022-09-28T15:55:22.056Z,98067.66
2022-09-28T15:56:59.901Z,98052.66
2022-09-28T15:58:33.185Z,98058.59
2022-09-28T16:00:22.874Z,98062.66
2022-09-28T16:02:08.399Z,98062.09
2022-09-28T16:03:41.786Z,98057.06
2022-09-28T16:05:35.851Z,98061.09
2022-09-28T16:07:36.232Z,98058.78
2022-09-28T16:09:37.656Z,98068.06
2022-09-28T16:11:18.276Z,98060.47
2022-09-28T16:12:58.859Z,98053.72
2022-09-28T16:14:32.113Z,98051.38
2022-09-28T16:16:05.558Z,98054.41
2022-09-28T16:17:39.791Z,98064.75
2022-09-28T16:19:24.775Z,98060.84
2022-09-28T16:21:28.561Z,98064.06
2022-09-28T16:23:09.120Z,98065.59
2022-09-28T16:24:42.322Z,98058.50
2022-09-28T16:26:29.891Z,98060.84
2022-09-28T16:28:06.190Z,98062.19
2022-09-28T16:29:41.531Z,98060.50
2022-09-28T16:31:37.416Z,98069.78
2022-09-28T16:33:30.673Z,98069.59
2022-09-28T16:35:19.328Z,98075.97
2022-09-28T16:36:52.659Z,98080.19
2022-09-28T16:38:26.297Z,98082.06
2022-09-28T16:39:59.441Z,98088.09
2022-09-28T16:41:33.546Z,98089.06
2022-09-28T16:43:10.203Z,98092.09
2022-09-28T16:44:43.679Z,98101.84
2022-09-28T16:46:20.750Z,98094.53
2022-09-28T16:47:57.723Z,98101.13
2022-09-28T16:49:32.613Z,98099.44
2022-09-28T16:51:15.171Z,98097.41
2022-09-28T16:53:08.680Z,98104.84
2022-09-28T16:54:59.471Z,98114.09
2022-09-28T16:56:45.608Z,98116.53
2022-09-28T16:58:20.242Z,98114.66
2022-09-28T16:59:54.128Z,98127.59
2022-09-28T17:01:28.860Z,98120.84
2022-09-28T17:03:02.428Z,98117.94
2022-09-28T17:04:35.940Z,98125.84
2022-09-28T17:06:14.057Z,98122.75
2022-09-28T17:07:49.026Z,98113.13
2022-09-28T17:09:23.311Z,98113.56
2022-09-28T17:11:18.054Z,98106.13
2022-09-28T17:12:52.864Z,98110.94
2022-09-28T17:14:28.511Z,98108.66
2022-09-28T17:16:04.456Z,98114.66
2022-09-28T17:17:38.537Z,98109.34
2022-09-28T17:19:19.687Z,98120.69
2022-09-28T17:20:57.332Z,98118.59
2022-09-28T17:22:30.483Z,98132.00
2022-09-28T17:24:04.371Z,98136.16
2022-09-28T17:25:41.609Z,98139.28
2022-09-28T17:27:19.550Z,98137.59
2022-09-28T17:28:53.169Z,98129.16
2022-09-28T17:30:28.767Z,98125.72
2022-09-28T17:32:02.364Z,98131.75
2022-09-28T17:33:36.320Z,98129.50
2022-09-28T17:35:24.037Z,98132.94
2022-09-28T17:36:58.786Z,98133.88
2022-09-28T17:38:32.286Z,98138.44
2022-09-28T17:40:20.110Z,98141.50
2022-09-28T17:41:53.375Z,98143.94
2022-09-28T17:43:26.623Z,98144.53
2022-09-28T17:45:00.063Z,98150.81
2022-09-28T17:46:37.218Z,98139.06
2022-09-28T17:48:15.807Z,98148.28
2022-09-28T17:49:51.543Z,98137.81
2022-09-28T17:51:25.008Z,98145.03
2022-09-28T17:52:59.943Z,98153.25
2022-09-28T17:54:33.989Z,98151.16
2022-09-28T17:56:07.697Z,98150.19
2022-09-28T17:57:46.026Z,98151.34
2022-09-28T17:59:19.915Z,98152.63
2022-09-28T18:00:53.388Z,98152.63
2022-09-28T18:02:28.276Z,98148.81
2022-09-28T18:04:04.847Z,98154.34
2022-09-28T18:05:38.569Z,98160.28
2022-09-28T18:07:11.757Z,98162.56
2022-09-28T18:08:44.997Z,98161.72
2022-09-28T18:10:21.542Z,98152.97
2022-09-28T18:12:01.711Z,98150.16
2022-09-28T18:13:35.394Z,98156.06
2022-09-28T18:15:10.482Z,98160.28
2022-09-28T18:16:43.026Z,98163.69
2022-09-28T18:18:17.920Z,98162.28
2022-09-28T18:19:51.451Z,98156.34
2022-09-28T18:21:24.986Z,98150.84
2022-09-28T18:22:58.526Z,98160.91
2022-09-28T18:24:32.686Z,98159.34
2022-09-28T18:26:11.599Z,98160.59
2022-09-28T18:27:44.861Z,98170.78
2022-09-28T18:29:18.836Z,98161.19
2022-09-28T18:30:52.352Z,98161.63
2022-09-28T18:32:25.717Z,98168.97
2022-09-28T18:34:01.812Z,98164.81
2022-09-28T18:35:35.675Z,98175.56
2022-09-28T18:37:10.116Z,98174.16
2022-09-28T18:38:43.614Z,98186.31
2022-09-28T18:40:17.046Z,98182.34
2022-09-28T18:41:50.509Z,98179.97
2022-09-28T18:43:24.887Z,98188.28
2022-09-28T18:44:57.967Z,98182.34
2022-09-28T18:46:36.786Z,98187.44
2022-09-28T18:48:09.948Z,98192.50
2022-09-28T18:49:46.735Z,98197.03
2022-09-28T18:51:20.709Z,98203.66
2022-09-28T18:52:53.846Z,98203.78
2022-09-28T18:54:27.305Z,98213.84
2022-09-28T18:56:05.697Z,98217.59
2022-09-28T18:57:40.439Z,98217.31
2022-09-28T18:59:14.213Z,98211.41
2022-09-28T19:00:50.883Z,98217.03
2022-09-28T19:02:24.562Z,98219.28
2022-09-28T19:03:59.948Z,98219.56
2022-09-28T19:05:35.770Z,98218.41
2022-09-28T19:07:09.926Z,98227.69
2022-09-28T19:08:43.902Z,98228.97
2022-09-28T19:10:17.421Z,98227.78
2022-09-28T19:11:51.403Z,98229.03
2022-09-28T19:13:24.719Z,98230.97
2022-09-28T19:14:59.655Z,98236.59
2022-09-28T19:16:33.801Z,98233.50
2022-09-28T19:18:07.168Z,98234.34
2022-09-28T19:19:41.513Z,98238.84
2022-09-28T19:21:17.382Z,98243.22
2022-09-28T19:22:51.713Z,98240.53
2022-09-28T19:24:25.238Z,98247.16
2022-09-28T19:25:58.730Z,98235.53
2022-09-28T19:27:32.300Z,98248.41
2022-09-28T19:29:05.580Z,98251.22
2022-09-28T19:30:38.853Z,98254.03
2022-09-28T19:32:12.718Z,98262.13
2022-09-28T19:33:46.559Z,98256.34
2022-09-28T19:35:20.498Z,98259.28
2022-09-28T19:36:55.332Z,98253.59
2022-09-28T19:38:29.689Z,98248.88
2022-09-28T19:40:04.411Z,98247.56
2022-09-28T19:41:45.812Z,98240.78
2022-09-28T19:43:19.898Z,98255.28
2022-09-28T19:44:53.308Z,98264.31
2022-09-28T19:46:25.583Z,98251.19
2022-09-28T19:48:01.755Z,98253.41
2022-09-28T19:49:37.307Z,98255.56
2022-09-28T19:51:11.055Z,98249.31
2022-09-28T19:52:45.874Z,98250.06
2022-09-28T19:54:21.662Z,98242.59
2022-09-28T19:55:55.556Z,98249.66
2022-09-28T19:57:31.038Z,98256.25